sensor_id;sensor_type;location;lat;lon;timestamp;temperature;humidity
61807;DHT22;47726;52.766;6.606;2023-04-09T00:01:15;9.50;99.90
61807;DHT22;47726;52.766;6.606;2023-04-09T00:03:40;9.50;99.90
61807;DHT22;47726;52.766;6.606;2023-04-09T00:06:06;9.50;99.90
61807;DHT22;47726;52.766;6.606;2023-04-09T00:08:32;9.40;99.90
61807;DHT22;47726;52.766;6.606;2023-04-09T00:10:58;9.50;99.90
61807;DHT22;47726;52.766;6.606;2023-04-09T00:13:24;9.40;99.90
61807;DHT22;47726;52.766;6.606;2023-04-09T00:15:50;9.40;99.90
61807;DHT22;47726;52.766;6.606;2023-04-09T00:18:16;9.40;99.90
61807;DHT22;47726;52.766;6.606;2023-04-09T00:20:42;9.40;99.90
61807;DHT22;47726;52.766;6.606;2023-04-09T00:23:08;9.40;99.90
61807;DHT22;47726;52.766;6.606;2023-04-09T00:25:34;9.40;99.90
61807;DHT22;47726;52.766;6.606;2023-04-09T00:28:00;9.40;99.90
61807;DHT22;47726;52.766;6.606;2023-04-09T00:30:29;9.40;99.90
61807;DHT22;47726;52.766;6.606;2023-04-09T00:32:55;9.40;99.90
61807;DHT22;47726;52.766;6.606;2023-04-09T00:35:21;9.30;99.90
61807;DHT22;47726;52.766;6.606;2023-04-09T00:37:46;9.30;99.90
61807;DHT22;47726;52.766;6.606;2023-04-09T00:40:12;9.30;99.90
61807;DHT22;47726;52.766;6.606;2023-04-09T00:42:38;9.30;99.90
61807;DHT22;47726;52.766;6.606;2023-04-09T00:45:04;9.30;99.90
61807;DHT22;47726;52.766;6.606;2023-04-09T00:47:31;9.30;99.90
61807;DHT22;47726;52.766;6.606;2023-04-09T00:49:57;9.30;99.90
61807;DHT22;47726;52.766;6.606;2023-04-09T00:52:23;9.30;99.90
61807;DHT22;47726;52.766;6.606;2023-04-09T00:54:49;9.30;99.90
61807;DHT22;47726;52.766;6.606;2023-04-09T00:57:15;9.30;99.90
61807;DHT22;47726;52.766;6.606;2023-04-09T00:59:44;9.30;99.90
61807;DHT22;47726;52.766;6.606;2023-04-09T01:02:10;9.30;99.90
61807;DHT22;47726;52.766;6.606;2023-04-09T01:04:37;9.20;99.90
61807;DHT22;47726;52.766;6.606;2023-04-09T01:07:19;9.30;99.90
61807;DHT22;47726;52.766;6.606;2023-04-09T01:15:45;9.30;99.90
61807;DHT22;47726;52.766;6.606;2023-04-09T01:18:39;9.20;99.90
61807;DHT22;47726;52.766;6.606;2023-04-09T01:21:14;9.20;99.90
61807;DHT22;47726;52.766;6.606;2023-04-09T01:24:01;9.20;99.90
61807;DHT22;47726;52.766;6.606;2023-04-09T01:27:04;9.20;99.90
61807;DHT22;47726;52.766;6.606;2023-04-09T01:29:32;9.20;99.90
61807;DHT22;47726;52.766;6.606;2023-04-09T01:32:02;9.20;99.90
61807;DHT22;47726;52.766;6.606;2023-04-09T01:34:29;9.20;99.90
61807;DHT22;47726;52.766;6.606;2023-04-09T01:36:57;9.10;99.90
61807;DHT22;47726;52.766;6.606;2023-04-09T01:39:24;9.20;99.90
61807;DHT22;47726;52.766;6.606;2023-04-09T01:41:50;9.10;99.90
61807;DHT22;47726;52.766;6.606;2023-04-09T01:44:17;9.10;99.90
61807;DHT22;47726;52.766;6.606;2023-04-09T01:46:45;9.10;99.90
61807;DHT22;47726;52.766;6.606;2023-04-09T01:49:11;9.10;99.90
61807;DHT22;47726;52.766;6.606;2023-04-09T01:51:37;9.10;99.90
61807;DHT22;47726;52.766;6.606;2023-04-09T01:54:03;9.10;99.90
61807;DHT22;47726;52.766;6.606;2023-04-09T01:56:45;9.10;99.90
61807;DHT22;47726;52.766;6.606;2023-04-09T01:59:12;9.10;99.90
61807;DHT22;47726;52.766;6.606;2023-04-09T02:04:23;9.10;99.90
61807;DHT22;47726;52.766;6.606;2023-04-09T02:09:31;9.10;99.90
61807;DHT22;47726;52.766;6.606;2023-04-09T02:12:01;9.10;99.90
61807;DHT22;47726;52.766;6.606;2023-04-09T02:14:27;9.10;99.90
61807;DHT22;47726;52.766;6.606;2023-04-09T02:16:53;9.00;99.90
61807;DHT22;47726;52.766;6.606;2023-04-09T02:19:19;9.00;99.90
61807;DHT22;47726;52.766;6.606;2023-04-09T02:21:45;9.10;99.90
61807;DHT22;47726;52.766;6.606;2023-04-09T02:24:10;9.00;99.90
61807;DHT22;47726;52.766;6.606;2023-04-09T02:26:36;9.00;99.90
61807;DHT22;47726;52.766;6.606;2023-04-09T02:29:02;9.00;99.90
61807;DHT22;47726;52.766;6.606;2023-04-09T02:31:27;9.00;99.90
61807;DHT22;47726;52.766;6.606;2023-04-09T02:33:53;9.00;99.90
61807;DHT22;47726;52.766;6.606;2023-04-09T02:36:19;9.00;99.90
61807;DHT22;47726;52.766;6.606;2023-04-09T02:38:44;9.00;99.90
61807;DHT22;47726;52.766;6.606;2023-04-09T02:41:10;9.00;99.90
61807;DHT22;47726;52.766;6.606;2023-04-09T02:43:35;9.00;99.90
61807;DHT22;47726;52.766;6.606;2023-04-09T02:46:01;9.00;99.90
61807;DHT22;47726;52.766;6.606;2023-04-09T02:48:27;9.00;99.90
61807;DHT22;47726;52.766;6.606;2023-04-09T02:50:52;9.00;99.90
61807;DHT22;47726;52.766;6.606;2023-04-09T02:53:18;9.00;99.90
61807;DHT22;47726;52.766;6.606;2023-04-09T02:55:46;8.90;99.90
61807;DHT22;47726;52.766;6.606;2023-04-09T02:58:11;8.90;99.90
61807;DHT22;47726;52.766;6.606;2023-04-09T03:00:37;8.90;99.90
61807;DHT22;47726;52.766;6.606;2023-04-09T03:03:02;8.90;99.90
61807;DHT22;47726;52.766;6.606;2023-04-09T03:05:28;8.90;99.90
61807;DHT22;47726;52.766;6.606;2023-04-09T03:07:53;8.90;99.90
61807;DHT22;47726;52.766;6.606;2023-04-09T03:10:19;8.90;99.90
61807;DHT22;47726;52.766;6.606;2023-04-09T03:12:45;8.90;99.90
61807;DHT22;47726;52.766;6.606;2023-04-09T03:15:12;8.90;99.90
61807;DHT22;47726;52.766;6.606;2023-04-09T03:17:38;8.90;99.90
61807;DHT22;47726;52.766;6.606;2023-04-09T03:20:04;8.80;99.90
61807;DHT22;47726;52.766;6.606;2023-04-09T03:22:38;8.90;99.90
61807;DHT22;47726;52.766;6.606;2023-04-09T03:25:04;8.90;99.90
61807;DHT22;47726;52.766;6.606;2023-04-09T03:27:31;8.80;99.90
61807;DHT22;47726;52.766;6.606;2023-04-09T03:29:57;8.80;99.90
61807;DHT22;47726;52.766;6.606;2023-04-09T03:32:23;8.80;99.90
61807;DHT22;47726;52.766;6.606;2023-04-09T03:34:48;8.80;99.90
61807;DHT22;47726;52.766;6.606;2023-04-09T03:37:14;8.80;99.90
61807;DHT22;47726;52.766;6.606;2023-04-09T03:39:40;8.80;99.90
61807;DHT22;47726;52.766;6.606;2023-04-09T03:42:06;8.80;99.90
61807;DHT22;47726;52.766;6.606;2023-04-09T03:44:31;8.70;99.90
61807;DHT22;47726;52.766;6.606;2023-04-09T03:46:57;8.80;99.90
61807;DHT22;47726;52.766;6.606;2023-04-09T03:49:22;8.80;99.90
61807;DHT22;47726;52.766;6.606;2023-04-09T03:51:48;8.80;99.90
61807;DHT22;47726;52.766;6.606;2023-04-09T03:54:13;8.70;99.90
61807;DHT22;47726;52.766;6.606;2023-04-09T03:56:39;8.80;99.90
61807;DHT22;47726;52.766;6.606;2023-04-09T03:59:05;8.70;99.90
61807;DHT22;47726;52.766;6.606;2023-04-09T04:01:30;8.80;99.90
61807;DHT22;47726;52.766;6.606;2023-04-09T04:03:56;8.70;99.90
61807;DHT22;47726;52.766;6.606;2023-04-09T04:06:22;8.70;99.90
61807;DHT22;47726;52.766;6.606;2023-04-09T04:08:47;8.70;99.90
61807;DHT22;47726;52.766;6.606;2023-04-09T04:11:13;8.70;99.90
61807;DHT22;47726;52.766;6.606;2023-04-09T04:13:38;8.70;99.90
61807;DHT22;47726;52.766;6.606;2023-04-09T04:16:08;8.70;99.90
61807;DHT22;47726;52.766;6.606;2023-04-09T04:18:34;8.70;99.90
61807;DHT22;47726;52.766;6.606;2023-04-09T04:21:00;8.70;99.90
61807;DHT22;47726;52.766;6.606;2023-04-09T04:23:26;8.70;99.90
61807;DHT22;47726;52.766;6.606;2023-04-09T04:25:51;8.70;99.90
61807;DHT22;47726;52.766;6.606;2023-04-09T04:28:21;8.70;99.90
61807;DHT22;47726;52.766;6.606;2023-04-09T04:30:46;8.70;99.90
61807;DHT22;47726;52.766;6.606;2023-04-09T04:33:12;8.70;99.90
61807;DHT22;47726;52.766;6.606;2023-04-09T04:35:37;8.70;99.90
61807;DHT22;47726;52.766;6.606;2023-04-09T04:38:03;8.70;99.90
61807;DHT22;47726;52.766;6.606;2023-04-09T04:40:28;8.70;99.90
61807;DHT22;47726;52.766;6.606;2023-04-09T04:42:54;8.70;99.90
61807;DHT22;47726;52.766;6.606;2023-04-09T04:45:20;8.70;99.90
61807;DHT22;47726;52.766;6.606;2023-04-09T04:47:45;8.70;99.90
61807;DHT22;47726;52.766;6.606;2023-04-09T04:50:11;8.70;99.90
61807;DHT22;47726;52.766;6.606;2023-04-09T04:52:36;8.70;99.90
61807;DHT22;47726;52.766;6.606;2023-04-09T04:55:03;8.60;99.90
61807;DHT22;47726;52.766;6.606;2023-04-09T04:57:29;8.60;99.90
61807;DHT22;47726;52.766;6.606;2023-04-09T04:59:54;8.70;99.90
61807;DHT22;47726;52.766;6.606;2023-04-09T05:02:20;8.60;99.90
61807;DHT22;47726;52.766;6.606;2023-04-09T05:04:45;8.60;99.90
61807;DHT22;47726;52.766;6.606;2023-04-09T05:07:11;8.70;99.90
61807;DHT22;47726;52.766;6.606;2023-04-09T05:09:37;8.60;99.90
61807;DHT22;47726;52.766;6.606;2023-04-09T05:12:02;8.70;99.90
61807;DHT22;47726;52.766;6.606;2023-04-09T05:14:28;8.60;99.90
61807;DHT22;47726;52.766;6.606;2023-04-09T05:16:53;8.60;99.90
61807;DHT22;47726;52.766;6.606;2023-04-09T05:19:19;8.70;99.90
61807;DHT22;47726;52.766;6.606;2023-04-09T05:21:44;8.60;99.90
61807;DHT22;47726;52.766;6.606;2023-04-09T05:24:10;8.60;99.90
61807;DHT22;47726;52.766;6.606;2023-04-09T05:26:36;8.60;99.90
61807;DHT22;47726;52.766;6.606;2023-04-09T05:29:01;8.60;99.90
61807;DHT22;47726;52.766;6.606;2023-04-09T05:31:27;8.60;99.90
61807;DHT22;47726;52.766;6.606;2023-04-09T05:33:52;8.60;99.90
61807;DHT22;47726;52.766;6.606;2023-04-09T05:36:18;8.60;99.90
61807;DHT22;47726;52.766;6.606;2023-04-09T05:38:47;8.60;99.90
61807;DHT22;47726;52.766;6.606;2023-04-09T05:41:13;8.50;99.90
61807;DHT22;47726;52.766;6.606;2023-04-09T05:43:38;8.60;99.90
61807;DHT22;47726;52.766;6.606;2023-04-09T05:46:05;8.60;99.90
61807;DHT22;47726;52.766;6.606;2023-04-09T05:48:30;8.50;99.90
61807;DHT22;47726;52.766;6.606;2023-04-09T05:50:59;8.60;99.90
61807;DHT22;47726;52.766;6.606;2023-04-09T05:53:24;8.50;99.90
61807;DHT22;47726;52.766;6.606;2023-04-09T05:55:50;8.60;99.90
61807;DHT22;47726;52.766;6.606;2023-04-09T05:58:16;8.60;99.90
61807;DHT22;47726;52.766;6.606;2023-04-09T06:00:43;8.50;99.90
61807;DHT22;47726;52.766;6.606;2023-04-09T06:03:09;8.60;99.90
61807;DHT22;47726;52.766;6.606;2023-04-09T06:05:34;8.50;99.90
61807;DHT22;47726;52.766;6.606;2023-04-09T06:08:00;8.50;99.90
61807;DHT22;47726;52.766;6.606;2023-04-09T06:10:26;8.50;99.90
61807;DHT22;47726;52.766;6.606;2023-04-09T06:12:51;8.60;99.90
61807;DHT22;47726;52.766;6.606;2023-04-09T06:15:17;8.60;99.90
61807;DHT22;47726;52.766;6.606;2023-04-09T06:17:43;8.50;99.90
61807;DHT22;47726;52.766;6.606;2023-04-09T06:20:09;8.50;99.90
61807;DHT22;47726;52.766;6.606;2023-04-09T06:22:35;8.50;99.90
61807;DHT22;47726;52.766;6.606;2023-04-09T06:25:00;8.50;99.90
61807;DHT22;47726;52.766;6.606;2023-04-09T06:27:26;8.50;99.90
61807;DHT22;47726;52.766;6.606;2023-04-09T06:29:51;8.50;99.90
61807;DHT22;47726;52.766;6.606;2023-04-09T06:32:17;8.50;99.90
61807;DHT22;47726;52.766;6.606;2023-04-09T06:34:42;8.50;99.90
61807;DHT22;47726;52.766;6.606;2023-04-09T06:37:08;8.60;99.90
61807;DHT22;47726;52.766;6.606;2023-04-09T06:39:33;8.50;99.90
61807;DHT22;47726;52.766;6.606;2023-04-09T06:41:59;8.60;99.90
61807;DHT22;47726;52.766;6.606;2023-04-09T06:44:25;8.50;99.90
61807;DHT22;47726;52.766;6.606;2023-04-09T06:46:50;8.50;99.90
61807;DHT22;47726;52.766;6.606;2023-04-09T06:49:16;8.60;99.90
61807;DHT22;47726;52.766;6.606;2023-04-09T06:51:42;8.60;99.90
61807;DHT22;47726;52.766;6.606;2023-04-09T06:54:07;8.60;99.90
61807;DHT22;47726;52.766;6.606;2023-04-09T06:56:33;8.60;99.90
61807;DHT22;47726;52.766;6.606;2023-04-09T06:58:59;8.60;99.90
61807;DHT22;47726;52.766;6.606;2023-04-09T07:01:25;8.70;99.90
61807;DHT22;47726;52.766;6.606;2023-04-09T07:03:51;8.60;99.90
61807;DHT22;47726;52.766;6.606;2023-04-09T07:06:16;8.70;99.90
61807;DHT22;47726;52.766;6.606;2023-04-09T07:08:42;8.70;99.90
61807;DHT22;47726;52.766;6.606;2023-04-09T07:11:07;8.70;99.90
61807;DHT22;47726;52.766;6.606;2023-04-09T07:13:33;8.70;99.90
61807;DHT22;47726;52.766;6.606;2023-04-09T07:15:58;8.80;99.90
61807;DHT22;47726;52.766;6.606;2023-04-09T07:18:24;8.80;99.90
61807;DHT22;47726;52.766;6.606;2023-04-09T07:20:51;8.80;99.90
61807;DHT22;47726;52.766;6.606;2023-04-09T07:23:16;8.80;99.90
61807;DHT22;47726;52.766;6.606;2023-04-09T07:25:42;8.90;99.90
61807;DHT22;47726;52.766;6.606;2023-04-09T07:28:08;8.90;99.90
61807;DHT22;47726;52.766;6.606;2023-04-09T07:30:34;8.90;99.90
61807;DHT22;47726;52.766;6.606;2023-04-09T07:32:59;9.00;99.90
61807;DHT22;47726;52.766;6.606;2023-04-09T07:35:25;9.10;99.90
61807;DHT22;47726;52.766;6.606;2023-04-09T07:37:51;9.20;99.90
61807;DHT22;47726;52.766;6.606;2023-04-09T07:40:16;9.20;99.90
61807;DHT22;47726;52.766;6.606;2023-04-09T07:42:42;9.30;99.90
61807;DHT22;47726;52.766;6.606;2023-04-09T07:45:08;9.50;99.90
61807;DHT22;47726;52.766;6.606;2023-04-09T07:47:33;9.70;99.90
61807;DHT22;47726;52.766;6.606;2023-04-09T07:49:59;9.90;99.90
61807;DHT22;47726;52.766;6.606;2023-04-09T07:52:25;10.10;99.90
61807;DHT22;47726;52.766;6.606;2023-04-09T07:54:50;10.30;99.90
61807;DHT22;47726;52.766;6.606;2023-04-09T07:57:16;10.40;99.90
61807;DHT22;47726;52.766;6.606;2023-04-09T07:59:41;10.40;99.90
61807;DHT22;47726;52.766;6.606;2023-04-09T08:02:07;10.50;99.90
61807;DHT22;47726;52.766;6.606;2023-04-09T08:04:33;10.60;99.90
61807;DHT22;47726;52.766;6.606;2023-04-09T08:06:58;10.60;99.90
61807;DHT22;47726;52.766;6.606;2023-04-09T08:09:24;10.70;99.90
61807;DHT22;47726;52.766;6.606;2023-04-09T08:11:50;10.80;99.90
61807;DHT22;47726;52.766;6.606;2023-04-09T08:14:16;10.80;99.90
61807;DHT22;47726;52.766;6.606;2023-04-09T08:16:44;11.00;99.90
61807;DHT22;47726;52.766;6.606;2023-04-09T08:19:10;11.10;99.90
61807;DHT22;47726;52.766;6.606;2023-04-09T08:21:37;11.30;99.90
61807;DHT22;47726;52.766;6.606;2023-04-09T08:24:03;11.50;99.90
61807;DHT22;47726;52.766;6.606;2023-04-09T08:26:30;11.60;99.90
61807;DHT22;47726;52.766;6.606;2023-04-09T08:28:56;11.90;99.90
61807;DHT22;47726;52.766;6.606;2023-04-09T08:31:22;12.20;99.90
61807;DHT22;47726;52.766;6.606;2023-04-09T08:33:48;12.40;99.90
61807;DHT22;47726;52.766;6.606;2023-04-09T08:36:13;12.70;99.90
61807;DHT22;47726;52.766;6.606;2023-04-09T08:38:39;12.90;99.90
61807;DHT22;47726;52.766;6.606;2023-04-09T08:41:05;13.10;99.90
61807;DHT22;47726;52.766;6.606;2023-04-09T08:43:32;13.20;99.90
61807;DHT22;47726;52.766;6.606;2023-04-09T08:46:00;13.30;99.90
61807;DHT22;47726;52.766;6.606;2023-04-09T08:48:27;13.50;99.90
61807;DHT22;47726;52.766;6.606;2023-04-09T08:50:54;13.60;99.90
61807;DHT22;47726;52.766;6.606;2023-04-09T08:53:20;13.80;99.90
61807;DHT22;47726;52.766;6.606;2023-04-09T08:55:48;14.00;99.90
61807;DHT22;47726;52.766;6.606;2023-04-09T08:58:14;14.10;99.90
61807;DHT22;47726;52.766;6.606;2023-04-09T09:00:39;14.20;99.90
61807;DHT22;47726;52.766;6.606;2023-04-09T09:03:10;14.20;99.90
61807;DHT22;47726;52.766;6.606;2023-04-09T09:05:38;14.30;99.90
61807;DHT22;47726;52.766;6.606;2023-04-09T09:08:05;14.10;99.90
61807;DHT22;47726;52.766;6.606;2023-04-09T09:10:42;14.10;99.90
61807;DHT22;47726;52.766;6.606;2023-04-09T09:13:25;14.20;99.90
61807;DHT22;47726;52.766;6.606;2023-04-09T09:15:52;14.30;99.90
61807;DHT22;47726;52.766;6.606;2023-04-09T09:18:39;14.40;99.90
61807;DHT22;47726;52.766;6.606;2023-04-09T09:21:10;14.40;99.90
61807;DHT22;47726;52.766;6.606;2023-04-09T09:23:36;14.60;99.90
61807;DHT22;47726;52.766;6.606;2023-04-09T09:28:43;14.70;99.90
61807;DHT22;47726;52.766;6.606;2023-04-09T09:31:10;14.60;99.90
61807;DHT22;47726;52.766;6.606;2023-04-09T09:33:37;14.70;99.90
61807;DHT22;47726;52.766;6.606;2023-04-09T09:36:03;14.90;99.90
61807;DHT22;47726;52.766;6.606;2023-04-09T09:38:29;15.10;99.90
61807;DHT22;47726;52.766;6.606;2023-04-09T09:40:55;15.20;99.90
61807;DHT22;47726;52.766;6.606;2023-04-09T09:43:21;15.40;99.90
61807;DHT22;47726;52.766;6.606;2023-04-09T09:45:47;15.50;99.90
61807;DHT22;47726;52.766;6.606;2023-04-09T09:48:13;15.70;99.90
61807;DHT22;47726;52.766;6.606;2023-04-09T09:50:40;15.70;99.90
61807;DHT22;47726;52.766;6.606;2023-04-09T09:53:08;15.70;99.90
61807;DHT22;47726;52.766;6.606;2023-04-09T09:55:37;15.70;99.90
61807;DHT22;47726;52.766;6.606;2023-04-09T09:58:11;15.80;99.90
61807;DHT22;47726;52.766;6.606;2023-04-09T10:00:39;16.00;99.90
61807;DHT22;47726;52.766;6.606;2023-04-09T10:03:19;16.10;99.90
61807;DHT22;47726;52.766;6.606;2023-04-09T10:05:47;16.30;99.90
61807;DHT22;47726;52.766;6.606;2023-04-09T10:08:14;16.30;99.90
61807;DHT22;47726;52.766;6.606;2023-04-09T10:10:40;16.40;99.90
61807;DHT22;47726;52.766;6.606;2023-04-09T10:13:11;16.50;99.90
61807;DHT22;47726;52.766;6.606;2023-04-09T10:15:38;16.50;99.90
61807;DHT22;47726;52.766;6.606;2023-04-09T10:18:04;16.70;99.90
61807;DHT22;47726;52.766;6.606;2023-04-09T10:20:40;16.70;99.90
61807;DHT22;47726;52.766;6.606;2023-04-09T10:23:13;16.80;99.90
61807;DHT22;47726;52.766;6.606;2023-04-09T10:25:40;16.90;99.90
61807;DHT22;47726;52.766;6.606;2023-04-09T10:28:15;16.90;99.90
61807;DHT22;47726;52.766;6.606;2023-04-09T10:30:41;17.00;99.90
61807;DHT22;47726;52.766;6.606;2023-04-09T10:33:13;17.00;99.90
61807;DHT22;47726;52.766;6.606;2023-04-09T10:35:39;16.90;99.90
61807;DHT22;47726;52.766;6.606;2023-04-09T10:38:08;16.80;99.90
61807;DHT22;47726;52.766;6.606;2023-04-09T10:40:55;16.70;99.90
61807;DHT22;47726;52.766;6.606;2023-04-09T10:43:20;16.70;99.90
61807;DHT22;47726;52.766;6.606;2023-04-09T10:45:47;16.70;99.90
61807;DHT22;47726;52.766;6.606;2023-04-09T10:48:18;16.70;99.90
61807;DHT22;47726;52.766;6.606;2023-04-09T10:50:45;16.70;99.90
61807;DHT22;47726;52.766;6.606;2023-04-09T10:53:21;16.70;99.90
61807;DHT22;47726;52.766;6.606;2023-04-09T10:55:49;16.80;99.90
61807;DHT22;47726;52.766;6.606;2023-04-09T10:58:18;16.80;99.90
61807;DHT22;47726;52.766;6.606;2023-04-09T11:00:47;16.60;99.90
61807;DHT22;47726;52.766;6.606;2023-04-09T11:05:56;16.50;99.90
61807;DHT22;47726;52.766;6.606;2023-04-09T11:08:22;16.50;99.90
61807;DHT22;47726;52.766;6.606;2023-04-09T11:10:48;16.40;99.90
61807;DHT22;47726;52.766;6.606;2023-04-09T11:13:15;16.40;99.90
61807;DHT22;47726;52.766;6.606;2023-04-09T11:15:42;16.20;99.90
61807;DHT22;47726;52.766;6.606;2023-04-09T11:18:08;16.10;99.90
61807;DHT22;47726;52.766;6.606;2023-04-09T11:20:39;16.10;99.90
61807;DHT22;47726;52.766;6.606;2023-04-09T11:23:05;16.00;99.90
61807;DHT22;47726;52.766;6.606;2023-04-09T11:25:31;15.90;99.90
61807;DHT22;47726;52.766;6.606;2023-04-09T11:27:58;15.80;99.90
61807;DHT22;47726;52.766;6.606;2023-04-09T11:30:24;15.70;99.90
61807;DHT22;47726;52.766;6.606;2023-04-09T11:32:50;15.60;99.90
61807;DHT22;47726;52.766;6.606;2023-04-09T11:35:18;15.60;99.90
61807;DHT22;47726;52.766;6.606;2023-04-09T11:37:45;15.50;99.90
61807;DHT22;47726;52.766;6.606;2023-04-09T11:42:41;15.60;99.90
61807;DHT22;47726;52.766;6.606;2023-04-09T11:45:08;15.70;99.90
61807;DHT22;47726;52.766;6.606;2023-04-09T11:47:34;15.80;99.90
61807;DHT22;47726;52.766;6.606;2023-04-09T11:50:00;15.80;99.90
61807;DHT22;47726;52.766;6.606;2023-04-09T11:52:26;15.80;99.90
61807;DHT22;47726;52.766;6.606;2023-04-09T11:54:53;15.80;99.90
61807;DHT22;47726;52.766;6.606;2023-04-09T11:57:18;15.80;99.90
61807;DHT22;47726;52.766;6.606;2023-04-09T11:59:44;15.90;99.90
61807;DHT22;47726;52.766;6.606;2023-04-09T12:02:11;15.80;99.90
61807;DHT22;47726;52.766;6.606;2023-04-09T12:04:36;15.80;99.90
61807;DHT22;47726;52.766;6.606;2023-04-09T12:07:02;15.70;99.90
61807;DHT22;47726;52.766;6.606;2023-04-09T12:09:28;15.70;99.90
61807;DHT22;47726;52.766;6.606;2023-04-09T12:11:53;15.80;99.90
61807;DHT22;47726;52.766;6.606;2023-04-09T12:14:21;15.80;99.90
61807;DHT22;47726;52.766;6.606;2023-04-09T12:16:50;15.80;99.90
61807;DHT22;47726;52.766;6.606;2023-04-09T12:19:16;15.80;99.90
61807;DHT22;47726;52.766;6.606;2023-04-09T12:21:53;15.80;99.90
61807;DHT22;47726;52.766;6.606;2023-04-09T12:24:22;15.90;99.90
61807;DHT22;47726;52.766;6.606;2023-04-09T12:26:49;15.90;99.90
61807;DHT22;47726;52.766;6.606;2023-04-09T12:29:17;15.90;99.90
61807;DHT22;47726;52.766;6.606;2023-04-09T12:31:43;16.00;99.90
61807;DHT22;47726;52.766;6.606;2023-04-09T12:34:09;16.00;99.90
61807;DHT22;47726;52.766;6.606;2023-04-09T12:36:35;15.90;99.90
61807;DHT22;47726;52.766;6.606;2023-04-09T12:39:00;16.00;99.90
61807;DHT22;47726;52.766;6.606;2023-04-09T12:41:26;15.90;99.90
61807;DHT22;47726;52.766;6.606;2023-04-09T12:43:52;15.90;99.90
61807;DHT22;47726;52.766;6.606;2023-04-09T12:46:18;15.90;99.90
61807;DHT22;47726;52.766;6.606;2023-04-09T12:48:44;15.80;99.90
61807;DHT22;47726;52.766;6.606;2023-04-09T12:51:11;15.80;99.90
61807;DHT22;47726;52.766;6.606;2023-04-09T12:53:37;15.80;99.90
61807;DHT22;47726;52.766;6.606;2023-04-09T12:56:02;15.70;99.90
61807;DHT22;47726;52.766;6.606;2023-04-09T12:58:28;15.70;99.90
61807;DHT22;47726;52.766;6.606;2023-04-09T13:00:54;15.70;99.90
61807;DHT22;47726;52.766;6.606;2023-04-09T13:03:21;15.70;99.90
61807;DHT22;47726;52.766;6.606;2023-04-09T13:05:48;15.80;99.90
61807;DHT22;47726;52.766;6.606;2023-04-09T13:08:13;15.90;99.90
61807;DHT22;47726;52.766;6.606;2023-04-09T13:10:39;15.90;99.90
61807;DHT22;47726;52.766;6.606;2023-04-09T13:13:05;15.90;99.90
61807;DHT22;47726;52.766;6.606;2023-04-09T13:15:36;16.00;99.90
61807;DHT22;47726;52.766;6.606;2023-04-09T13:18:02;16.00;99.90
61807;DHT22;47726;52.766;6.606;2023-04-09T13:20:28;16.00;99.90
61807;DHT22;47726;52.766;6.606;2023-04-09T13:22:55;16.00;99.90
61807;DHT22;47726;52.766;6.606;2023-04-09T13:25:20;16.00;99.90
61807;DHT22;47726;52.766;6.606;2023-04-09T13:27:46;16.00;99.90
61807;DHT22;47726;52.766;6.606;2023-04-09T13:30:12;16.10;99.90
61807;DHT22;47726;52.766;6.606;2023-04-09T13:32:37;16.10;99.40
61807;DHT22;47726;52.766;6.606;2023-04-09T13:35:04;16.10;99.30
61807;DHT22;47726;52.766;6.606;2023-04-09T13:37:30;16.20;99.90
61807;DHT22;47726;52.766;6.606;2023-04-09T13:39:55;16.30;99.80
61807;DHT22;47726;52.766;6.606;2023-04-09T13:42:21;16.30;99.80
61807;DHT22;47726;52.766;6.606;2023-04-09T13:44:47;16.40;99.50
61807;DHT22;47726;52.766;6.606;2023-04-09T13:47:13;16.40;98.50
61807;DHT22;47726;52.766;6.606;2023-04-09T13:49:39;16.30;98.50
61807;DHT22;47726;52.766;6.606;2023-04-09T13:52:05;16.40;99.10
61807;DHT22;47726;52.766;6.606;2023-04-09T13:54:32;16.40;99.00
61807;DHT22;47726;52.766;6.606;2023-04-09T13:56:58;16.40;98.70
61807;DHT22;47726;52.766;6.606;2023-04-09T13:59:23;16.40;98.60
61807;DHT22;47726;52.766;6.606;2023-04-09T14:01:49;16.50;98.60
61807;DHT22;47726;52.766;6.606;2023-04-09T14:04:15;16.50;98.00
61807;DHT22;47726;52.766;6.606;2023-04-09T14:06:41;16.50;97.20
61807;DHT22;47726;52.766;6.606;2023-04-09T14:09:08;16.50;96.50
61807;DHT22;47726;52.766;6.606;2023-04-09T14:11:33;16.50;96.80
61807;DHT22;47726;52.766;6.606;2023-04-09T14:13:59;16.50;96.30
61807;DHT22;47726;52.766;6.606;2023-04-09T14:16:24;16.40;95.80
61807;DHT22;47726;52.766;6.606;2023-04-09T14:18:50;16.40;96.00
61807;DHT22;47726;52.766;6.606;2023-04-09T14:21:16;16.30;95.70
61807;DHT22;47726;52.766;6.606;2023-04-09T14:23:42;16.30;95.90
61807;DHT22;47726;52.766;6.606;2023-04-09T14:26:08;16.20;95.50
61807;DHT22;47726;52.766;6.606;2023-04-09T14:28:34;16.20;95.30
61807;DHT22;47726;52.766;6.606;2023-04-09T14:31:00;16.20;95.80
61807;DHT22;47726;52.766;6.606;2023-04-09T14:33:26;16.20;95.80
61807;DHT22;47726;52.766;6.606;2023-04-09T14:35:51;16.20;95.20
61807;DHT22;47726;52.766;6.606;2023-04-09T14:38:17;16.20;95.00
61807;DHT22;47726;52.766;6.606;2023-04-09T14:40:43;16.10;94.80
61807;DHT22;47726;52.766;6.606;2023-04-09T14:43:09;16.00;95.10
61807;DHT22;47726;52.766;6.606;2023-04-09T14:45:35;16.00;95.70
61807;DHT22;47726;52.766;6.606;2023-04-09T14:48:01;16.00;95.80
61807;DHT22;47726;52.766;6.606;2023-04-09T14:50:30;16.10;95.60
61807;DHT22;47726;52.766;6.606;2023-04-09T14:52:56;16.10;96.40
61807;DHT22;47726;52.766;6.606;2023-04-09T14:55:22;16.20;96.20
61807;DHT22;47726;52.766;6.606;2023-04-09T14:57:49;16.20;95.70
61807;DHT22;47726;52.766;6.606;2023-04-09T15:00:15;16.20;96.10
61807;DHT22;47726;52.766;6.606;2023-04-09T15:02:41;16.20;95.60
61807;DHT22;47726;52.766;6.606;2023-04-09T15:05:07;16.20;95.50
61807;DHT22;47726;52.766;6.606;2023-04-09T15:07:33;16.20;95.00
61807;DHT22;47726;52.766;6.606;2023-04-09T15:09:58;16.20;94.10
61807;DHT22;47726;52.766;6.606;2023-04-09T15:12:29;16.20;94.20
61807;DHT22;47726;52.766;6.606;2023-04-09T15:14:55;16.20;94.30
61807;DHT22;47726;52.766;6.606;2023-04-09T15:17:24;16.20;94.10
61807;DHT22;47726;52.766;6.606;2023-04-09T15:19:51;16.20;94.20
61807;DHT22;47726;52.766;6.606;2023-04-09T15:22:17;16.20;93.50
61807;DHT22;47726;52.766;6.606;2023-04-09T15:24:43;16.20;93.60
61807;DHT22;47726;52.766;6.606;2023-04-09T15:27:08;16.10;93.70
61807;DHT22;47726;52.766;6.606;2023-04-09T15:29:34;16.10;93.70
61807;DHT22;47726;52.766;6.606;2023-04-09T15:32:00;16.00;93.50
61807;DHT22;47726;52.766;6.606;2023-04-09T15:34:25;16.10;93.60
61807;DHT22;47726;52.766;6.606;2023-04-09T15:36:51;16.00;93.70
61807;DHT22;47726;52.766;6.606;2023-04-09T15:39:17;16.10;93.30
61807;DHT22;47726;52.766;6.606;2023-04-09T15:41:43;16.00;93.10
61807;DHT22;47726;52.766;6.606;2023-04-09T15:44:09;16.00;93.00
61807;DHT22;47726;52.766;6.606;2023-04-09T15:46:36;16.00;92.90
61807;DHT22;47726;52.766;6.606;2023-04-09T15:49:02;15.90;92.70
61807;DHT22;47726;52.766;6.606;2023-04-09T15:51:27;15.90;93.30
61807;DHT22;47726;52.766;6.606;2023-04-09T15:53:53;15.90;94.30